Time,TemperatureF,DewpointF,PressureIn,WindDirection,WindDirectionDegrees,WindSpeedMPH,WindSpeedGustMPH,Humidity,HourlyPrecipIn,Conditions,Clouds,dailyrainin,SoftwareType,DateUTC
2013-02-14 20:26:00,68.4,68.4,30.16,North,0,0.0,0.0,100,0.00,,---,0.00,VWS V14.01,2013-02-15 02:26:00,
2013-02-14 20:31:00,29.3,24.8,30.14,ESE,115,17.2,17.2,83,14.94,,---,14.94,VWS V14.01,2013-02-15 02:31:00,
2013-02-14 20:36:00,29.2,23.8,30.15,WNW,295,6.3,6.3,80,14.94,,---,14.94,VWS V14.01,2013-02-15 02:36:00,
2013-02-14 20:41:00,29.0,23.3,30.15,North,2,8.5,8.5,79,14.94,,---,14.94,VWS V14.01,2013-02-15 02:41:00,
2013-02-14 20:46:00,28.6,22.6,30.15,North,2,8.3,10.1,78,14.94,,---,14.94,VWS V14.01,2013-02-15 02:46:00,
2013-02-14 20:51:00,28.6,22.3,30.15,NNE,25,13.6,13.6,77,14.94,,---,14.94,VWS V14.01,2013-02-15 02:51:00,
2013-02-14 20:56:00,29.0,22.1,30.16,NNW,340,5.6,5.6,75,14.94,,---,14.94,VWS V14.01,2013-02-15 02:56:00,
2013-02-14 21:01:00,29.2,22.0,30.16,NW,318,12.5,12.5,74,14.94,,---,14.94,VWS V14.01,2013-02-15 03:01:00,
2013-02-14 21:06:00,29.2,22.3,30.17,NW,318,10.1,10.1,75,14.94,,---,14.94,VWS V14.01,2013-02-15 03:06:00,
2013-02-14 21:11:00,29.0,21.8,30.17,NNE,25,6.7,6.7,74,14.94,,---,14.94,VWS V14.01,2013-02-15 03:11:00,
2013-02-14 21:16:00,28.8,20.3,30.17,NE,48,7.8,7.8,70,14.94,,---,14.94,VWS V14.01,2013-02-15 03:16:00,
2013-02-14 21:21:00,28.6,20.1,30.18,North,2,5.6,5.6,70,14.94,,---,14.94,VWS V14.01,2013-02-15 03:21:00,
2013-02-14 21:26:00,28.6,20.1,30.18,NE,48,4.0,4.0,70,14.94,,---,14.94,VWS V14.01,2013-02-15 03:26:00,
2013-02-14 21:31:00,28.4,19.2,30.18,NNE,25,8.5,8.5,68,0.00,,---,14.94,VWS V14.01,2013-02-15 03:31:00,
2013-02-14 21:36:00,28.3,18.8,30.18,WNW,295,11.4,11.4,67,0.00,,---,14.94,VWS V14.01,2013-02-15 03:36:00,
2013-02-14 21:41:00,27.9,17.3,30.19,North,2,4.0,4.0,64,0.00,,---,14.94,VWS V14.01,2013-02-15 03:41:00,
2013-02-14 21:46:00,27.7,17.5,30.19,SE,138,6.9,6.9,65,0.00,,---,14.94,VWS V14.01,2013-02-15 03:46:00,
2013-02-14 21:51:00,27.7,17.8,30.19,ENE,70,6.9,6.9,66,0.00,,---,14.94,VWS V14.01,2013-02-15 03:51:00,
2013-02-14 21:56:00,27.5,17.6,30.20,NNW,340,8.5,8.5,66,0.00,,---,14.94,VWS V14.01,2013-02-15 03:56:00,
2013-02-14 22:01:00,27.4,17.5,30.20,NE,48,6.3,6.3,66,0.00,,---,14.94,VWS V14.01,2013-02-15 04:01:00,
2013-02-14 22:06:00,27.2,17.7,30.20,NW,318,7.6,7.6,67,0.00,,---,14.94,VWS V14.01,2013-02-15 04:06:00,
2013-02-14 22:11:00,27.0,18.2,30.21,WNW,295,3.8,3.8,69,0.00,,---,14.94,VWS V14.01,2013-02-15 04:11:00,
2013-02-14 22:16:00,26.8,18.0,30.21,North,2,7.6,7.6,69,0.00,,---,14.94,VWS V14.01,2013-02-15 04:16:00,
2013-02-14 22:21:00,26.6,17.5,30.21,ESE,115,9.6,9.6,68,0.00,,---,14.94,VWS V14.01,2013-02-15 04:21:00,
2013-02-14 22:26:00,26.3,16.9,30.22,North,2,5.1,5.1,67,0.00,,---,14.94,VWS V14.01,2013-02-15 04:26:00,
2013-02-14 22:31:00,26.3,17.2,30.22,NW,318,7.6,7.6,68,0.00,,---,14.94,VWS V14.01,2013-02-15 04:31:00,
2013-02-14 22:36:00,25.9,16.5,30.22,NW,318,8.3,8.3,67,0.00,,---,14.94,VWS V14.01,2013-02-15 04:36:00,
2013-02-14 22:41:00,25.7,17.0,30.22,North,2,5.8,5.8,69,0.00,,---,14.94,VWS V14.01,2013-02-15 04:41:00,
2013-02-14 22:46:00,25.6,17.2,30.22,NW,318,8.9,8.9,70,0.00,,---,14.94,VWS V14.01,2013-02-15 04:46:00,
2013-02-14 22:51:00,25.4,17.3,30.23,SSW,205,6.3,6.3,71,0.00,,---,14.94,VWS V14.01,2013-02-15 04:51:00,
2013-02-14 22:56:00,24.8,18.0,30.23,NW,318,6.9,6.9,75,0.00,,---,14.94,VWS V14.01,2013-02-15 04:56:00,
2013-02-14 23:00:00,24.7,18.2,30.23,West,272,9.8,9.8,76,0.00,,---,14.94,VWS V14.01,2013-02-15 05:00:00,
2013-02-14 23:05:00,24.3,17.8,30.23,NW,318,7.6,7.6,76,0.00,,---,14.94,VWS V14.01,2013-02-15 05:05:00,
2013-02-14 23:10:00,23.9,17.8,30.23,NW,318,4.0,4.0,77,0.00,,---,14.94,VWS V14.01,2013-02-15 05:10:00,
2013-02-14 23:15:00,23.8,17.4,30.23,NE,48,7.8,7.8,76,0.00,,---,14.94,VWS V14.01,2013-02-15 05:15:00,
2013-02-14 23:20:00,23.6,17.5,30.23,NW,318,9.8,9.8,77,0.00,,---,14.94,VWS V14.01,2013-02-15 05:20:00,
2013-02-14 23:25:00,23.2,17.1,30.24,WSW,250,4.0,4.0,77,0.00,,---,14.94,VWS V14.01,2013-02-15 05:25:00,
2013-02-14 23:30:00,22.9,16.8,30.24,WSW,250,5.4,5.4,77,0.00,,---,14.94,VWS V14.01,2013-02-15 05:30:00,
2013-02-14 23:35:00,22.5,16.4,30.24,NE,48,4.7,4.7,77,0.00,,---,14.94,VWS V14.01,2013-02-15 05:35:00,
2013-02-14 23:41:00,22.1,15.4,30.24,WNW,295,9.2,9.2,75,0.00,,---,14.94,VWS V14.01,2013-02-15 05:41:00,
2013-02-14 23:46:00,22.0,15.3,30.24,WNW,295,7.8,7.8,75,0.00,,---,14.94,VWS V14.01,2013-02-15 05:46:00,
2013-02-14 23:51:00,21.6,14.9,30.24,NNW,340,7.4,7.6,75,0.00,,---,14.94,VWS V14.01,2013-02-15 05:51:00,
2013-02-14 23:56:00,21.4,14.7,30.24,WSW,250,4.3,4.7,75,0.00,,---,14.94,VWS V14.01,2013-02-15 05:56:00,